createdAt,value
2023-01-03T00:01:05.765Z,22.9
2023-01-03T00:06:14.127Z,23.4
2023-01-03T00:11:21.814Z,23.9
2023-01-03T00:16:15.044Z,23.5
2023-01-03T00:21:21.600Z,23.1
2023-01-03T00:26:44.522Z,22.8
2023-01-03T00:31:51.641Z,22.6
2023-01-03T00:37:18.262Z,22.4
2023-01-03T00:42:41.414Z,22.6
2023-01-03T00:48:06.279Z,23.1
2023-01-03T00:53:27.934Z,23.6
2023-01-03T00:58:50.883Z,23.6
2023-01-03T01:04:18.388Z,23.3
2023-01-03T01:09:41.183Z,23.6
2023-01-03T01:15:04.449Z,23.9
2023-01-03T01:20:27.504Z,23.6
2023-01-03T01:25:40.230Z,23.1
2023-01-03T01:31:03.255Z,22.8
2023-01-03T01:36:26.266Z,22.6
2023-01-03T01:41:48.814Z,22.5
2023-01-03T01:47:18.438Z,22.8
2023-01-03T01:52:40.998Z,23.4
2023-01-03T01:58:03.308Z,23.9
2023-01-03T02:03:12.467Z,23.6
2023-01-03T02:08:20.142Z,23.2
2023-01-03T02:13:41.420Z,23.4
2023-01-03T02:18:49.524Z,23.9
2023-01-03T02:23:45.896Z,23.8
2023-01-03T02:29:08.322Z,23.4
2023-01-03T02:34:31.369Z,23
2023-01-03T02:39:41.294Z,22.8
2023-01-03T02:45:03.298Z,22.6
2023-01-03T02:50:26.665Z,22.6
2023-01-03T02:55:49.191Z,22.9
2023-01-03T03:01:11.397Z,23.5
2023-01-03T03:06:20.531Z,23.9
2023-01-03T03:11:43.849Z,23.7
2023-01-03T03:17:06.351Z,23.3
2023-01-03T03:22:04.254Z,22.9
2023-01-03T03:27:26.466Z,22.8
2023-01-03T03:32:02.718Z,22.5
2023-01-03T03:37:25.153Z,22.6
2023-01-03T03:42:48.002Z,22.9
2023-01-03T03:48:01.501Z,23.2
2023-01-03T03:53:23.529Z,23.1
2023-01-03T03:58:45.708Z,23.1
2023-01-03T04:04:09.178Z,23.6
2023-01-03T04:09:32.018Z,23.9
2023-01-03T04:14:55.079Z,23.5
2023-01-03T04:20:02.650Z,23.1
2023-01-03T04:25:13.141Z,22.8
2023-01-03T04:30:38.473Z,22.6
2023-01-03T04:36:01.157Z,22.4
2023-01-03T04:41:23.876Z,22.7
2023-01-03T04:46:52.448Z,23.3
2023-01-03T04:52:14.507Z,23.8
2023-01-03T04:57:36.813Z,23.8
2023-01-03T05:03:01.379Z,23.4
2023-01-03T05:08:29.736Z,23.2
2023-01-03T05:13:37.224Z,23.6
2023-01-03T05:19:02.944Z,24.1
2023-01-03T05:24:15.594Z,23.8
2023-01-03T05:29:41.364Z,23.3
2023-01-03T05:35:05.016Z,22.9
2023-01-03T05:40:12.303Z,22.7
2023-01-03T05:45:19.698Z,22.4
2023-01-03T05:50:27.441Z,22.6
2023-01-03T05:55:33.821Z,23
2023-01-03T06:00:40.968Z,23.5
2023-01-03T06:05:50.514Z,23.6
2023-01-03T06:10:57.503Z,23.4
2023-01-03T06:16:24.583Z,23.3
2023-01-03T06:21:32.511Z,23.6
2023-01-03T06:26:11.247Z,23.9
2023-01-03T06:31:18.559Z,23.6
2023-01-03T06:43:33.644Z,22.7
2023-01-03T06:48:26.192Z,22.5
2023-01-03T06:53:32.238Z,22.4
2023-01-03T06:58:50.299Z,22.8
2023-01-03T07:03:28.514Z,23.3
2023-01-03T07:08:20.602Z,23.8
2023-01-03T07:13:15.800Z,23.8
2023-01-03T07:18:07.339Z,23.4
2023-01-03T07:22:59.471Z,22.9
2023-01-03T07:28:09.023Z,22.6
2023-01-03T07:33:16.860Z,22.5
2023-01-03T07:38:08.817Z,22.4
2023-01-03T07:43:00.535Z,22.6
2023-01-03T07:47:52.381Z,23.1
2023-01-03T07:52:59.588Z,23.6
2023-01-03T07:58:09.838Z,23.9
2023-01-03T08:03:18.593Z,23.6
2023-01-03T08:08:41.850Z,23.1
2023-01-03T08:14:11.970Z,22.8
2023-01-03T08:19:18.822Z,22.6
2023-01-03T08:24:46.879Z,22.4
2023-01-03T08:30:01.284Z,22.6
2023-01-03T08:35:17.545Z,23.1
2023-01-03T08:40:42.045Z,23.6
2023-01-03T08:45:34.111Z,23.5
2023-01-03T08:50:40.981Z,23.2
2023-01-03T08:55:55.421Z,23.4
2023-01-03T09:01:17.992Z,23.9
2023-01-03T09:06:43.478Z,23.6
2023-01-03T09:12:11.442Z,23.2
2023-01-03T09:17:23.253Z,23.5
2023-01-03T09:22:46.070Z,24
2023-01-03T09:28:16.050Z,23.6
2023-01-03T09:33:39.107Z,23.2
2023-01-03T09:39:03.153Z,22.8
2023-01-03T09:44:16.094Z,22.7
2023-01-03T09:49:23.660Z,22.6
2023-01-03T09:56:01.086Z,22.9
2023-01-03T10:01:27.129Z,23.6
2023-01-03T10:06:54.688Z,23.8
2023-01-03T10:12:23.604Z,23.4
2023-01-03T10:17:21.754Z,23.4
2023-01-03T10:22:46.455Z,23.9
2023-01-03T10:27:57.685Z,23.8
2023-01-03T10:33:29.660Z,23.3
2023-01-03T10:39:02.705Z,22.9
2023-01-03T10:44:24.977Z,22.8
2023-01-03T10:50:33.765Z,22.5
2023-01-03T10:55:58.375Z,22.9
2023-01-03T11:01:23.125Z,23.5
2023-01-03T11:06:53.684Z,23.8
2023-01-03T11:12:20.885Z,23.4
2023-01-03T11:17:51.216Z,23.2
2023-01-03T11:23:14.190Z,23.6
2023-01-03T11:28:26.890Z,23.9
2023-01-03T11:33:49.821Z,23.5
2023-01-03T11:39:43.094Z,23.2
2023-01-03T11:45:05.573Z,23.6
2023-01-03T11:50:36.445Z,24.1
2023-01-03T11:56:02.942Z,23.7
2023-01-03T12:01:10.579Z,23.4
2023-01-03T12:06:36.785Z,23.4
2023-01-03T12:12:44.620Z,24.1
2023-01-03T12:17:59.506Z,23.8
2023-01-03T12:23:26.553Z,23.4
2023-01-03T12:28:49.076Z,23.5
2023-01-03T12:34:17.237Z,24.1
2023-01-03T12:39:47.358Z,23.9
2023-01-03T12:44:55.142Z,23.6
2023-01-03T12:50:12.039Z,23.4
2023-01-03T12:55:37.826Z,23.9
2023-01-03T13:01:08.645Z,24.2
2023-01-03T13:06:21.217Z,23.8
2023-01-03T13:11:43.700Z,23.5
2023-01-03T13:17:12.129Z,23.6
2023-01-03T13:22:34.376Z,24.3
2023-01-03T13:27:58.859Z,24
2023-01-03T13:33:13.143Z,23.6
2023-01-03T13:38:41.096Z,23.5
2023-01-03T13:44:46.089Z,24
2023-01-03T13:50:10.785Z,24.2
2023-01-03T13:55:33.948Z,23.8
2023-01-03T14:01:05.748Z,23.5
2023-01-03T14:06:30.428Z,23.7
2023-01-03T14:11:55.792Z,24.3
2023-01-03T14:17:08.815Z,24
2023-01-03T14:23:16.993Z,23.6
2023-01-03T14:29:13.134Z,23.6
2023-01-03T14:34:42.141Z,24.1
2023-01-03T14:40:04.645Z,24.1
2023-01-03T14:45:33.792Z,23.8
2023-01-03T14:51:00.145Z,23.5
2023-01-03T14:56:27.968Z,23.8
2023-01-03T15:01:57.407Z,24.3
2023-01-03T15:07:29.734Z,23.9
2023-01-03T15:12:52.168Z,23.6
2023-01-03T15:18:20.350Z,23.6
2023-01-03T15:23:43.486Z,24.1
2023-01-03T15:29:13.726Z,24.1
2023-01-03T15:34:43.404Z,23.7
2023-01-03T15:40:12.177Z,23.5
2023-01-03T15:46:18.860Z,23.7
2023-01-03T15:51:50.227Z,24.2
2023-01-03T15:57:03.931Z,23.9
2023-01-03T16:02:14.517Z,23.5
2023-01-03T16:07:38.538Z,23.5
2023-01-03T16:13:01.651Z,24
2023-01-03T16:18:31.610Z,24
2023-01-03T16:24:39.923Z,23.6
2023-01-03T16:30:08.415Z,23.4
2023-01-03T16:35:37.526Z,23.8
2023-01-03T16:41:04.465Z,24.1
2023-01-03T16:46:19.393Z,23.7
2023-01-03T16:51:47.296Z,23.4
2023-01-03T16:57:11.249Z,23.6
2023-01-03T17:02:42.498Z,24.1
2023-01-03T17:08:02.124Z,23.9
2023-01-03T17:13:29.622Z,23.6
2023-01-03T17:18:54.160Z,23.4
2023-01-03T17:24:54.072Z,23.8
2023-01-03T17:30:19.381Z,24
2023-01-03T17:35:47.351Z,23.6
2023-01-03T17:41:37.418Z,23.3
2023-01-03T17:47:00.940Z,23.6
2023-01-03T17:52:24.079Z,24
2023-01-03T17:57:00.362Z,23.6
2023-01-03T18:02:01.556Z,23.3
2023-01-03T18:08:00.341Z,23.4
2023-01-03T18:13:30.012Z,24
2023-01-03T18:18:53.144Z,23.7
2023-01-03T18:24:15.942Z,23.4
2023-01-03T18:29:23.585Z,23.4
2023-01-03T18:34:46.907Z,23.8
2023-01-03T18:40:18.046Z,23.9
2023-01-03T18:45:45.448Z,23.4
2023-01-03T18:51:14.793Z,23.3
2023-01-03T18:56:37.824Z,23.7
2023-01-03T19:02:05.632Z,24
2023-01-03T19:07:04.581Z,23.6
2023-01-03T19:12:27.802Z,23.3
2023-01-03T19:17:51.068Z,23.6
2023-01-03T19:23:14.243Z,24
2023-01-03T19:28:22.855Z,23.6
2023-01-03T19:33:30.892Z,23.4
2023-01-03T19:38:37.560Z,23.4
2023-01-03T19:43:52.812Z,24
2023-01-03T19:49:16.045Z,23.8
2023-01-03T19:54:27.590Z,23.4
2023-01-03T19:59:20.032Z,23.4
2023-01-03T20:05:28.131Z,23.8
2023-01-03T20:10:57.461Z,23.9
2023-01-03T20:15:56.213Z,23.5
2023-01-03T20:21:03.872Z,23.4
2023-01-03T20:26:44.337Z,23.8
2023-01-03T20:32:15.890Z,23.9
2023-01-03T20:37:46.436Z,23.6
2023-01-03T20:42:55.652Z,23.3
2023-01-03T20:48:24.954Z,23.6
2023-01-03T20:53:54.041Z,24.1
2023-01-03T20:59:02.141Z,23.7
2023-01-03T21:04:28.340Z,23.4
2023-01-03T21:09:57.901Z,23.5
2023-01-03T21:15:08.008Z,24.1
2023-01-03T21:20:36.743Z,23.8
2023-01-03T21:25:32.039Z,23.5
2023-01-03T21:30:58.586Z,23.4
2023-01-03T21:36:09.184Z,23.9
2023-01-03T21:41:00.641Z,24
2023-01-03T21:46:08.945Z,23.6
2023-01-03T21:51:41.139Z,23.4
2023-01-03T21:57:03.983Z,23.6
2023-01-03T22:02:31.388Z,24.1
2023-01-03T22:07:23.654Z,23.8
2023-01-03T22:12:49.094Z,23.4
2023-01-03T22:18:12.131Z,23.5
2023-01-03T22:23:40.897Z,24.1
2023-01-03T22:28:48.815Z,24
2023-01-03T22:33:56.303Z,23.7
2023-01-03T22:39:19.237Z,23.5
2023-01-03T22:44:32.560Z,23.8
2023-01-03T22:49:55.087Z,24.2
2023-01-03T22:55:17.220Z,23.8
2023-01-03T23:00:40.430Z,23.6
2023-01-03T23:05:51.459Z,23.6
2023-01-03T23:11:13.844Z,24.1
2023-01-03T23:16:09.164Z,23.9
2023-01-03T23:21:32.445Z,23.7
2023-01-03T23:26:42.820Z,23.5
2023-01-03T23:32:05.893Z,23.9
2023-01-03T23:37:13.388Z,24.1
2023-01-03T23:42:20.650Z,23.8
2023-01-03T23:47:46.798Z,23.6
2023-01-03T23:52:53.737Z,23.8
2023-01-03T23:58:22.355Z,24.2
